Time;durP1;ratioP1;P1;durP2;ratioP2;P2;SDS_P1;SDS_P2;PMS_P1;PMS_P2;Temp;Humidity;BMP_temperature;BMP_pressure;BME280_temperature;BME280_humidity;BME280_pressure;Samples;Min_cycle;Max_cycle;Signal;HPM_P1;HPM_P2
2023/08/19 00:00:33;;;;;;;5.23;3.53;;;17.90;99.90;;;;;;2071613;28;20265;-81
2023/08/19 00:01:34;;;;;;;5.37;3.50;;;17.80;99.70;;;;;;2063392;28;20246;-82
2023/08/19 00:02:35;;;;;;;3.47;3.17;;;17.70;99.90;;;;;;2068129;28;20215;-82
2023/08/19 00:03:37;;;;;;;4.17;3.57;;;17.80;99.90;;;;;;2061844;28;20464;-83
2023/08/19 00:04:38;;;;;;;5.13;4.03;;;17.80;99.90;;;;;;2052597;28;20478;-83
2023/08/19 00:05:38;;;;;;;5.97;3.50;;;17.80;99.90;;;;;;2056843;28;20844;-83
2023/08/19 00:06:40;;;;;;;4.57;3.40;;;17.80;99.90;;;;;;2064417;28;20357;-83
2023/08/19 00:07:41;;;;;;;5.17;3.30;;;17.80;99.90;;;;;;2063986;28;20225;-82
2023/08/19 00:08:42;;;;;;;3.87;3.27;;;17.80;99.70;;;;;;2055923;28;20468;-83
2023/08/19 00:09:42;;;;;;;7.20;3.60;;;17.80;99.70;;;;;;2072564;28;20252;-83
2023/08/19 00:10:43;;;;;;;6.80;3.47;;;17.80;99.60;;;;;;2073215;28;20225;-81
2023/08/19 00:11:44;;;;;;;4.73;3.30;;;17.80;99.80;;;;;;2073026;28;20711;-83
2023/08/19 00:12:45;;;;;;;4.47;3.50;;;17.80;99.50;;;;;;2065725;28;20472;-81
2023/08/19 00:13:46;;;;;;;4.60;3.37;;;17.80;99.40;;;;;;2072971;28;20240;-83
2023/08/19 00:14:48;;;;;;;4.77;3.47;;;17.90;99.20;;;;;;2072454;28;20481;-82
2023/08/19 00:15:48;;;;;;;5.93;3.53;;;17.90;99.30;;;;;;2077866;28;20217;-81
2023/08/19 00:16:49;;;;;;;6.23;3.27;;;17.90;99.20;;;;;;2075711;28;20472;-81
2023/08/19 00:17:50;;;;;;;8.17;3.53;;;17.80;99.50;;;;;;2075054;28;20300;-82
2023/08/19 00:18:50;;;;;;;6.73;3.90;;;17.90;99.60;;;;;;2074210;28;20257;-83
2023/08/19 00:19:51;;;;;;;5.90;3.57;;;17.90;99.60;;;;;;2065524;28;20272;-82
2023/08/19 00:20:52;;;;;;;4.60;3.27;;;17.90;99.50;;;;;;2061341;28;20781;-82
2023/08/19 00:21:53;;;;;;;4.63;3.90;;;18.00;99.50;;;;;;2059101;28;20232;-83
2023/08/19 00:22:57;;;;;;;4.17;3.27;;;18.00;99.40;;;;;;2064568;28;20293;-82
2023/08/19 00:23:59;;;;;;;6.63;3.97;;;18.00;99.90;;;;;;2070152;28;20921;-83
2023/08/19 00:24:59;;;;;;;8.87;3.70;;;17.90;99.90;;;;;;2060369;28;21000;-82
2023/08/19 00:26:00;;;;;;;5.10;3.43;;;17.80;99.90;;;;;;2060900;28;20469;-82
2023/08/19 00:27:01;;;;;;;3.83;3.40;;;17.80;99.90;;;;;;2055887;28;20234;-82
2023/08/19 00:28:04;;;;;;;4.30;3.70;;;17.80;99.80;;;;;;2056771;28;20295;-81
2023/08/19 00:29:04;;;;;;;7.10;3.47;;;17.90;99.50;;;;;;2064856;28;20419;-82
2023/08/19 00:30:06;;;;;;;5.17;3.53;;;17.90;99.10;;;;;;2070403;28;20443;-82
2023/08/19 00:31:08;;;;;;;4.30;3.20;;;17.90;99.20;;;;;;2072564;28;20181;-82
2023/08/19 00:32:09;;;;;;;6.37;3.27;;;18.00;99.20;;;;;;2063518;28;20423;-82
2023/08/19 00:33:10;;;;;;;5.60;3.47;;;18.10;98.70;;;;;;2064472;28;20519;-80
2023/08/19 00:34:11;;;;;;;8.67;3.97;;;18.10;98.70;;;;;;2064574;28;20767;-83
2023/08/19 00:35:12;;;;;;;6.43;3.47;;;18.10;98.70;;;;;;2071781;28;20173;-83
2023/08/19 00:36:13;;;;;;;7.23;3.13;;;18.20;98.60;;;;;;2064366;28;20249;-81
2023/08/19 00:37:14;;;;;;;9.50;3.97;;;18.20;98.30;;;;;;2049378;28;20449;-82
2023/08/19 00:38:15;;;;;;;5.50;3.57;;;18.30;98.50;;;;;;2064060;28;20185;-82
2023/08/19 00:39:15;;;;;;;9.77;3.50;;;18.20;98.50;;;;;;2070184;28;20185;-82
2023/08/19 00:40:16;;;;;;;6.63;3.57;;;18.30;98.30;;;;;;2076872;28;20185;-82
2023/08/19 00:41:17;;;;;;;4.67;3.57;;;18.30;98.50;;;;;;2071716;28;20268;-82
2023/08/19 00:42:18;;;;;;;7.00;3.50;;;18.30;98.70;;;;;;2068297;28;20205;-83
2023/08/19 00:43:19;;;;;;;4.57;3.07;;;18.30;98.50;;;;;;2069952;28;20430;-83
2023/08/19 00:44:20;;;;;;;6.03;3.43;;;18.30;98.60;;;;;;2072406;28;20186;-82
2023/08/19 00:45:20;;;;;;;6.93;3.53;;;18.30;98.50;;;;;;2063206;28;20280;-83
2023/08/19 00:46:21;;;;;;;4.50;3.40;;;18.20;98.70;;;;;;2062600;28;20292;-83
2023/08/19 00:47:23;;;;;;;6.30;3.43;;;18.20;98.50;;;;;;2078228;28;20224;-82
2023/08/19 00:48:25;;;;;;;5.13;3.70;;;18.30;98.10;;;;;;2072182;28;20995;-83
2023/08/19 00:49:26;;;;;;;4.07;3.37;;;18.30;97.80;;;;;;2069317;28;20896;-82
2023/08/19 00:50:27;;;;;;;5.30;3.40;;;18.30;97.90;;;;;;2071727;28;20477;-82
2023/08/19 00:51:28;;;;;;;4.70;3.43;;;18.30;98.00;;;;;;2068478;28;20237;-82
2023/08/19 00:52:28;;;;;;;5.33;2.90;;;18.30;97.80;;;;;;2067536;28;20558;-82
2023/08/19 00:53:30;;;;;;;3.97;3.00;;;18.30;97.80;;;;;;2059633;28;20222;-82
2023/08/19 00:54:31;;;;;;;7.60;3.30;;;18.30;97.70;;;;;;2068488;28;20658;-81
2023/08/19 00:55:32;;;;;;;6.43;3.63;;;18.30;97.70;;;;;;2067774;28;20468;-81
2023/08/19 00:56:33;;;;;;;4.10;3.53;;;18.30;97.80;;;;;;2072049;28;20225;-83
2023/08/19 00:57:36;;;;;;;4.33;3.70;;;18.30;97.70;;;;;;2063534;28;20542;-82
2023/08/19 00:58:37;;;;;;;6.47;3.60;;;18.40;97.70;;;;;;2055850;28;20679;-82
2023/08/19 00:59:38;;;;;;;4.90;3.30;;;18.40;97.60;;;;;;2064000;28;20554;-83
2023/08/19 01:00:39;;;;;;;4.67;3.40;;;18.40;97.90;;;;;;2071505;28;20344;-82
2023/08/19 01:01:41;;;;;;;4.23;3.13;;;18.30;98.10;;;;;;2063872;28;20221;-81
2023/08/19 01:02:42;;;;;;;4.80;3.57;;;18.30;98.10;;;;;;2064262;28;20472;-82
2023/08/19 01:03:43;;;;;;;6.13;3.57;;;18.30;97.90;;;;;;2057123;28;21335;-82
2023/08/19 01:04:44;;;;;;;4.47;3.50;;;18.30;98.00;;;;;;2067096;28;20472;-83
2023/08/19 01:06:03;;;;;;;5.83;3.33;;;18.30;97.90;;;;;;2071685;28;20557;-83
2023/08/19 01:07:25;;;;;;;4.23;3.07;;;18.30;97.90;;;;;;2066079;28;20712;-81
2023/08/19 01:08:55;;;;;;;7.97;3.73;;;18.30;97.80;;;;;;2064968;28;20989;-82
2023/08/19 01:10:21;;;;;;;5.57;3.10;;;18.20;98.00;;;;;;2071293;28;20465;-82
2023/08/19 01:11:58;;;;;;;5.10;3.33;;;18.20;97.90;;;;;;2076141;28;20465;-82
2023/08/19 01:13:15;;;;;;;5.90;3.40;;;18.20;97.80;;;;;;2071147;28;20466;-81
2023/08/19 01:14:35;;;;;;;6.23;3.40;;;18.20;97.60;;;;;;2079044;28;20984;-80
2023/08/19 01:15:53;;;;;;;3.13;2.83;;;18.20;97.50;;;;;;2074829;28;20515;-81
2023/08/19 01:16:54;;;;;;;9.83;3.13;;;18.20;97.30;;;;;;2071384;28;20469;-83
2023/08/19 01:17:56;;;;;;;6.40;3.20;;;18.10;97.40;;;;;;2072014;28;20978;-81
2023/08/19 01:18:59;;;;;;;3.77;2.90;;;18.10;97.30;;;;;;2059741;28;20468;-82
2023/08/19 01:20:00;;;;;;;3.90;2.93;;;18.00;97.00;;;;;;2061291;28;20469;-82
2023/08/19 01:21:02;;;;;;;4.20;3.50;;;17.90;97.20;;;;;;2060535;28;20472;-82
2023/08/19 01:22:07;;;;;;;4.07;3.10;;;17.80;97.80;;;;;;2059648;28;20234;-83
2023/08/19 01:23:33;;;;;;;4.00;3.27;;;17.80;97.10;;;;;;2064879;28;20430;-82
2023/08/19 01:24:38;;;;;;;4.00;2.80;;;17.70;97.00;;;;;;2066103;28;20470;-83
2023/08/19 01:25:41;;;;;;;5.97;3.30;;;17.80;96.60;;;;;;2072840;28;20605;-81
2023/08/19 01:26:42;;;;;;;5.73;2.97;;;17.80;96.20;;;;;;2072382;28;20470;-82
2023/08/19 01:27:42;;;;;;;5.43;2.87;;;17.80;95.80;;;;;;2066387;28;20975;-81
2023/08/19 01:28:43;;;;;;;4.27;2.73;;;17.80;95.40;;;;;;2064262;28;20242;-82
2023/08/19 01:29:44;;;;;;;6.17;3.10;;;17.90;95.70;;;;;;2067229;28;20900;-82
2023/08/19 01:30:45;;;;;;;5.00;2.87;;;17.90;96.40;;;;;;2072594;28;20234;-82
2023/08/19 01:31:45;;;;;;;3.67;2.80;;;17.90;96.20;;;;;;2080103;28;20311;-82
2023/08/19 01:32:47;;;;;;;5.30;3.20;;;17.90;96.10;;;;;;2072382;28;20729;-83
2023/08/19 01:33:48;;;;;;;5.33;3.40;;;17.90;96.00;;;;;;2060008;28;20334;-83
2023/08/19 01:34:49;;;;;;;6.17;3.33;;;17.90;95.20;;;;;;2052381;28;20477;-82
2023/08/19 01:36:29;;;;;;;4.73;2.97;;;17.90;95.60;;;;;;2056305;28;20230;-82
2023/08/19 01:37:47;;;;;;;4.70;3.20;;;17.90;95.60;;;;;;2071408;28;20466;-83
2023/08/19 01:39:05;;;;;;;3.43;2.70;;;17.90;95.30;;;;;;2068768;28;20510;-83
2023/08/19 01:40:13;;;;;;;4.60;3.10;;;17.80;95.20;;;;;;2057690;28;20456;-82
2023/08/19 01:41:16;;;;;;;6.93;2.93;;;17.90;95.10;;;;;;2062233;28;20542;-82
2023/08/19 01:42:18;;;;;;;2.90;2.60;;;17.80;95.10;;;;;;2064553;28;20546;-83
2023/08/19 01:43:19;;;;;;;5.60;3.00;;;17.80;94.90;;;;;;2064538;28;20440;-83
2023/08/19 01:44:20;;;;;;;6.20;2.50;;;17.90;94.70;;;;;;2064752;28;20427;-82
2023/08/19 01:45:22;;;;;;;6.23;3.27;;;17.80;95.00;;;;;;2057208;28;20549;-83
2023/08/19 01:46:24;;;;;;;5.63;3.13;;;17.80;95.30;;;;;;2063205;28;20471;-82
2023/08/19 01:47:25;;;;;;;6.73;2.90;;;17.90;95.40;;;;;;2064624;28;21179;-83
2023/08/19 01:48:26;;;;;;;4.97;2.97;;;17.90;95.40;;;;;;2061456;28;20461;-83
2023/08/19 01:49:26;;;;;;;6.67;3.60;;;17.90;95.50;;;;;;2068158;28;20249;-81
2023/08/19 01:50:27;;;;;;;5.40;2.93;;;17.80;95.80;;;;;;2060896;28;20250;-83
2023/08/19 01:51:31;;;;;;;3.83;2.87;;;17.80;96.20;;;;;;2052139;28;20277;-82
2023/08/19 01:52:32;;;;;;;4.20;2.87;;;17.70;96.30;;;;;;2052964;28;20255;-81
2023/08/19 01:53:33;;;;;;;5.97;2.83;;;17.70;96.10;;;;;;2056351;28;20468;-82
2023/08/19 01:54:33;;;;;;;3.63;2.97;;;17.70;95.80;;;;;;2064408;28;20476;-82
2023/08/19 01:55:34;;;;;;;4.57;3.10;;;17.70;95.80;;;;;;2056594;28;20309;-82
2023/08/19 01:56:36;;;;;;;4.77;2.87;;;17.70;95.70;;;;;;2063914;28;20226;-83
2023/08/19 01:57:37;;;;;;;4.93;3.00;;;17.70;96.00;;;;;;2064961;28;20253;-83
2023/08/19 01:58:38;;;;;;;4.33;2.90;;;17.70;96.00;;;;;;2056777;28;20476;-82
2023/08/19 01:59:39;;;;;;;5.67;3.00;;;17.80;95.90;;;;;;2072264;28;20304;-82
2023/08/19 02:00:39;;;;;;;4.47;3.13;;;17.70;96.20;;;;;;2055704;28;20711;-82
2023/08/19 02:01:40;;;;;;;6.67;3.00;;;17.80;95.60;;;;;;2048467;28;20242;-84
2023/08/19 02:02:41;;;;;;;4.50;2.53;;;17.80;95.10;;;;;;2056578;28;20246;-82
2023/08/19 02:03:41;;;;;;;4.87;3.23;;;17.70;95.10;;;;;;2056104;28;20314;-83
2023/08/19 02:04:42;;;;;;;3.73;2.77;;;17.80;95.40;;;;;;2068937;28;20287;-83
2023/08/19 02:05:43;;;;;;;6.87;3.00;;;17.80;95.70;;;;;;2069940;28;20256;-82
2023/08/19 02:06:43;;;;;;;3.97;3.10;;;17.80;96.20;;;;;;2057172;28;20317;-82
2023/08/19 02:07:44;;;;;;;4.93;3.07;;;17.80;96.30;;;;;;2058325;28;20300;-83
2023/08/19 02:08:45;;;;;;;4.67;3.27;;;17.80;96.30;;;;;;2056263;28;20346;-82
2023/08/19 02:09:46;;;;;;;4.37;2.90;;;17.80;96.50;;;;;;2056904;28;20227;-83
2023/08/19 02:10:47;;;;;;;3.90;3.23;;;17.80;96.50;;;;;;2056481;28;20266;-83
2023/08/19 02:11:47;;;;;;;5.60;3.50;;;17.80;96.50;;;;;;2055861;28;20218;-83
2023/08/19 02:12:48;;;;;;;3.77;2.97;;;17.70;96.50;;;;;;2073982;28;20233;-83
2023/08/19 02:13:49;;;;;;;4.00;2.67;;;17.70;96.70;;;;;;2076955;28;20209;-82
2023/08/19 02:14:49;;;;;;;4.47;3.03;;;17.70;96.50;;;;;;2080837;28;20233;-81
2023/08/19 02:15:50;;;;;;;6.23;3.40;;;17.70;96.50;;;;;;2073531;28;20234;-83
2023/08/19 02:16:51;;;;;;;5.83;2.90;;;17.60;96.30;;;;;;2073486;28;20272;-82
2023/08/19 02:17:52;;;;;;;4.17;3.00;;;17.60;96.30;;;;;;2069806;28;20467;-83
2023/08/19 02:18:53;;;;;;;4.23;2.93;;;17.60;96.30;;;;;;2060469;28;20223;-84
2023/08/19 02:19:53;;;;;;;5.43;3.10;;;17.60;96.10;;;;;;2057194;28;20230;-82
2023/08/19 02:20:54;;;;;;;4.70;3.07;;;17.60;96.20;;;;;;2061314;28;20261;-83
2023/08/19 02:21:55;;;;;;;6.53;3.13;;;17.60;96.00;;;;;;2061367;28;20630;-83
2023/08/19 02:22:58;;;;;;;5.40;3.33;;;17.50;95.90;;;;;;2064437;28;20329;-83
2023/08/19 02:23:59;;;;;;;4.13;2.83;;;17.60;96.10;;;;;;2070649;28;20252;-83
2023/08/19 02:24:59;;;;;;;4.43;2.97;;;17.60;96.30;;;;;;2055554;28;20464;-82
2023/08/19 02:26:00;;;;;;;4.13;3.10;;;17.60;96.30;;;;;;2054233;28;20214;-83
2023/08/19 02:27:01;;;;;;;8.30;3.27;;;17.60;96.30;;;;;;2063919;28;20994;-81
2023/08/19 02:28:02;;;;;;;8.77;3.30;;;17.60;96.40;;;;;;2070678;28;20237;-83
2023/08/19 02:29:03;;;;;;;4.33;3.10;;;17.60;96.50;;;;;;2081837;28;20183;-82
2023/08/19 02:30:05;;;;;;;3.83;2.90;;;17.50;96.80;;;;;;2076346;28;20185;-81
2023/08/19 02:31:05;;;;;;;4.73;3.40;;;17.50;96.90;;;;;;2077062;28;20423;-81
2023/08/19 02:32:06;;;;;;;9.33;3.70;;;17.50;96.20;;;;;;2085258;28;20502;-82
2023/08/19 02:33:07;;;;;;;5.77;3.33;;;17.50;96.20;;;;;;2068768;28;20213;-81
2023/08/19 02:34:08;;;;;;;8.07;3.43;;;17.50;96.20;;;;;;2072207;28;20193;-83
2023/08/19 02:35:10;;;;;;;3.80;3.13;;;17.50;96.20;;;;;;2063966;28;20420;-82
2023/08/19 02:36:12;;;;;;;3.30;2.83;;;17.50;96.20;;;;;;2061867;28;20289;-83
2023/08/19 02:37:14;;;;;;;4.17;2.93;;;17.50;96.30;;;;;;2069625;28;20935;-83
2023/08/19 02:38:15;;;;;;;5.20;2.77;;;17.50;96.30;;;;;;2070590;28;20441;-83
2023/08/19 02:39:16;;;;;;;4.20;2.97;;;17.50;96.30;;;;;;2061035;28;20436;-82
2023/08/19 02:40:16;;;;;;;3.03;2.73;;;17.50;96.80;;;;;;2060651;28;20200;-83
2023/08/19 02:41:17;;;;;;;4.40;2.80;;;17.50;96.80;;;;;;2068800;28;20201;-83
2023/08/19 02:42:18;;;;;;;4.33;3.30;;;17.40;96.90;;;;;;2068411;28;20221;-84
2023/08/19 02:43:19;;;;;;;7.90;3.23;;;17.50;97.10;;;;;;2067820;28;20192;-83
2023/08/19 02:44:19;;;;;;;5.93;3.03;;;17.40;96.80;;;;;;2078495;28;20787;-82
2023/08/19 02:45:20;;;;;;;5.17;3.20;;;17.40;96.80;;;;;;2072771;28;21993;-83
2023/08/19 02:46:22;;;;;;;4.30;2.73;;;17.40;96.60;;;;;;2072805;28;20668;-83
2023/08/19 02:47:23;;;;;;;6.00;3.70;;;17.40;96.60;;;;;;2064729;28;20226;-83
2023/08/19 02:48:24;;;;;;;5.63;2.90;;;17.40;96.60;;;;;;2064474;28;20555;-82
2023/08/19 02:49:25;;;;;;;4.43;2.93;;;17.40;96.70;;;;;;2063749;28;20233;-83
2023/08/19 02:50:25;;;;;;;6.47;3.00;;;17.40;96.90;;;;;;2056208;28;20802;-83
2023/08/19 02:51:26;;;;;;;9.13;3.47;;;17.40;97.00;;;;;;2071967;28;20236;-82
2023/08/19 02:52:27;;;;;;;4.50;3.20;;;17.30;96.90;;;;;;2071935;28;20229;-84
2023/08/19 02:53:28;;;;;;;4.83;3.40;;;17.40;96.90;;;;;;2055829;28;20894;-83
2023/08/19 02:54:29;;;;;;;6.00;3.23;;;17.30;96.90;;;;;;2048419;28;20231;-84
2023/08/19 02:55:30;;;;;;;7.50;3.20;;;17.40;97.10;;;;;;2063617;28;20550;-83
2023/08/19 02:56:30;;;;;;;7.37;3.20;;;17.40;97.20;;;;;;2063586;28;20726;-83
2023/08/19 02:57:31;;;;;;;3.87;2.83;;;17.40;97.10;;;;;;2073175;28;20308;-81
2023/08/19 02:58:33;;;;;;;5.63;3.13;;;17.40;97.20;;;;;;2071385;28;20317;-81
2023/08/19 02:59:33;;;;;;;4.30;3.03;;;17.40;97.30;;;;;;2068061;28;20229;-81
2023/08/19 03:00:38;;;;;;;5.27;3.03;;;17.30;97.30;;;;;;2063723;28;20535;-81
2023/08/19 03:01:39;;;;;;;4.60;3.20;;;17.30;97.20;;;;;;2066514;28;20229;-81
2023/08/19 03:02:39;;;;;;;4.27;2.97;;;17.30;97.00;;;;;;2072082;28;20471;-82
2023/08/19 03:03:40;;;;;;;3.33;2.70;;;17.30;96.80;;;;;;2071834;28;20233;-81
2023/08/19 03:04:41;;;;;;;6.63;3.03;;;17.30;96.20;;;;;;2063739;28;20306;-82
2023/08/19 03:05:42;;;;;;;5.27;3.23;;;17.30;96.20;;;;;;2063762;28;20244;-81
2023/08/19 03:06:43;;;;;;;5.23;3.00;;;17.20;96.50;;;;;;2080262;28;20591;-82
2023/08/19 03:07:44;;;;;;;5.17;3.00;;;17.20;96.50;;;;;;2070914;28;20482;-82
2023/08/19 03:08:44;;;;;;;3.90;2.73;;;17.30;96.60;;;;;;2071015;28;20233;-82
2023/08/19 03:09:45;;;;;;;7.80;2.93;;;17.30;96.80;;;;;;2062393;28;20316;-82
2023/08/19 03:10:46;;;;;;;8.23;3.30;;;17.20;96.90;;;;;;2057195;28;20289;-82
2023/08/19 03:11:46;;;;;;;4.10;3.10;;;17.20;97.50;;;;;;2070363;28;20284;-80
2023/08/19 03:12:47;;;;;;;5.57;3.37;;;17.20;97.40;;;;;;2067983;28;20242;-80
2023/08/19 03:13:48;;;;;;;6.97;3.43;;;17.20;97.40;;;;;;2073071;28;20229;-81
2023/08/19 03:14:48;;;;;;;4.40;3.50;;;17.20;97.70;;;;;;2076114;28;20798;-81
2023/08/19 03:15:49;;;;;;;8.60;3.33;;;17.20;97.70;;;;;;2067372;28;20802;-82
2023/08/19 03:16:50;;;;;;;8.00;3.20;;;17.10;97.50;;;;;;2068025;28;20238;-82
2023/08/19 03:17:51;;;;;;;9.40;3.27;;;17.10;97.40;;;;;;2075549;28;20312;-82
2023/08/19 03:18:52;;;;;;;5.53;3.23;;;17.10;97.50;;;;;;2067419;28;20686;-82
2023/08/19 03:19:52;;;;;;;5.37;3.10;;;17.20;97.50;;;;;;2055214;28;20437;-81
2023/08/19 03:20:57;;;;;;;5.00;3.20;;;17.20;97.50;;;;;;2050562;28;20231;-82
2023/08/19 03:21:58;;;;;;;5.73;3.33;;;17.10;97.70;;;;;;2063003;28;20277;-81
2023/08/19 03:22:59;;;;;;;5.27;3.30;;;17.20;97.70;;;;;;2063160;28;20467;-81
2023/08/19 03:24:00;;;;;;;7.47;3.60;;;17.20;97.60;;;;;;2061848;28;20715;-82
2023/08/19 03:25:00;;;;;;;5.07;2.87;;;17.20;97.60;;;;;;2060494;28;20244;-82
2023/08/19 03:26:02;;;;;;;4.97;3.20;;;17.20;97.80;;;;;;2045693;28;20215;-82
2023/08/19 03:27:03;;;;;;;4.50;3.30;;;17.10;98.10;;;;;;2055458;28;20186;-81
2023/08/19 03:28:04;;;;;;;4.53;3.10;;;17.10;98.00;;;;;;2072014;28;20809;-81
2023/08/19 03:29:05;;;;;;;5.33;3.40;;;17.10;97.60;;;;;;2067152;28;20178;-82
2023/08/19 03:30:06;;;;;;;5.40;3.03;;;17.10;98.00;;;;;;2063639;28;20459;-82
2023/08/19 03:31:11;;;;;;;3.60;2.90;;;17.00;98.10;;;;;;2078488;28;20219;-82
2023/08/19 03:32:12;;;;;;;6.27;3.47;;;17.00;97.90;;;;;;2077358;28;20438;-82
2023/08/19 03:33:12;;;;;;;5.07;3.30;;;17.00;97.90;;;;;;2071528;28;20507;-81
2023/08/19 03:34:13;;;;;;;4.83;3.30;;;17.00;97.90;;;;;;2068127;28;20704;-82
2023/08/19 03:35:14;;;;;;;5.23;3.40;;;17.00;97.80;;;;;;2077382;28;20195;-82
2023/08/19 03:36:14;;;;;;;6.87;3.40;;;17.00;97.90;;;;;;2061415;28;20372;-82
2023/08/19 03:37:15;;;;;;;4.97;3.50;;;16.90;98.20;;;;;;2051305;28;20191;-81
2023/08/19 03:38:16;;;;;;;6.37;3.53;;;17.00;98.20;;;;;;2069504;28;20182;-82
2023/08/19 03:39:17;;;;;;;4.70;3.10;;;17.00;98.10;;;;;;2067285;28;20688;-81
2023/08/19 03:40:18;;;;;;;4.20;2.90;;;17.00;98.20;;;;;;2069689;28;20439;-82
2023/08/19 03:41:18;;;;;;;4.13;3.23;;;17.00;98.30;;;;;;2071466;28;20316;-82
2023/08/19 03:42:19;;;;;;;5.93;3.47;;;17.00;98.00;;;;;;2068462;28;20682;-82
2023/08/19 03:43:20;;;;;;;4.70;3.57;;;17.00;98.20;;;;;;2073672;28;20272;-82
2023/08/19 03:44:20;;;;;;;4.07;3.10;;;17.00;98.10;;;;;;2079923;28;20223;-81
2023/08/19 03:45:21;;;;;;;6.40;3.10;;;17.00;97.90;;;;;;2067942;28;20659;-83
2023/08/19 03:46:22;;;;;;;5.67;3.33;;;17.00;97.90;;;;;;2050943;28;20285;-81
2023/08/19 03:47:23;;;;;;;6.37;3.27;;;17.00;97.90;;;;;;2055329;28;21049;-81
2023/08/19 03:48:24;;;;;;;8.23;3.73;;;17.00;97.80;;;;;;2067127;28;20233;-81
2023/08/19 03:49:24;;;;;;;3.47;3.10;;;17.00;98.00;;;;;;2067476;28;20656;-81
2023/08/19 03:50:25;;;;;;;3.67;3.27;;;17.00;97.90;;;;;;2072244;28;20332;-81
2023/08/19 03:51:26;;;;;;;5.00;3.40;;;17.00;97.90;;;;;;2055797;28;20230;-81
2023/08/19 03:52:27;;;;;;;6.82;3.38;;;17.00;97.80;;;;;;2057806;28;20257;-82
2023/08/19 03:53:28;;;;;;;6.33;3.30;;;17.00;97.80;;;;;;2063350;28;20234;-83
2023/08/19 03:54:29;;;;;;;5.47;3.20;;;17.00;97.80;;;;;;2062438;28;20295;-81
2023/08/19 03:55:30;;;;;;;6.20;3.50;;;17.00;97.80;;;;;;2055407;28;20634;-81
2023/08/19 03:56:31;;;;;;;4.30;3.30;;;17.00;97.90;;;;;;2070948;28;20689;-82
2023/08/19 03:57:32;;;;;;;6.23;3.30;;;17.00;97.90;;;;;;2067543;28;20463;-82
2023/08/19 03:58:32;;;;;;;5.03;3.63;;;16.90;97.90;;;;;;2059330;28;20833;-82
2023/08/19 03:59:33;;;;;;;6.90;3.00;;;17.00;98.10;;;;;;2077517;28;20240;-80
2023/08/19 04:00:34;;;;;;;6.77;3.93;;;16.90;98.10;;;;;;2071908;28;20292;-82
2023/08/19 04:01:35;;;;;;;6.20;3.70;;;16.90;98.20;;;;;;2063546;28;20241;-82
2023/08/19 04:02:36;;;;;;;4.10;2.97;;;16.90;98.40;;;;;;2070048;28;20352;-82
2023/08/19 04:03:37;;;;;;;5.77;3.40;;;16.90;98.40;;;;;;2062024;28;21123;-82
2023/08/19 04:04:59;;;;;;;4.23;2.87;;;16.90;98.60;;;;;;2053655;28;20312;-81
2023/08/19 04:06:00;;;;;;;5.50;3.20;;;16.90;98.40;;;;;;2061632;28;20635;-82
2023/08/19 04:07:01;;;;;;;10.23;3.60;;;16.90;98.00;;;;;;2062333;28;20545;-81
2023/08/19 04:08:02;;;;;;;3.73;3.23;;;16.90;98.20;;;;;;2067227;28;20248;-82
2023/08/19 04:09:04;;;;;;;3.47;3.10;;;16.90;98.30;;;;;;2067161;28;20179;-82
2023/08/19 04:10:05;;;;;;;7.53;3.50;;;16.90;98.10;;;;;;2067116;28;20178;-82
2023/08/19 04:11:07;;;;;;;4.63;3.47;;;16.90;98.00;;;;;;2066354;28;20427;-83
2023/08/19 04:12:08;;;;;;;4.53;3.03;;;16.90;98.10;;;;;;2068677;28;20435;-81
2023/08/19 04:13:09;;;;;;;5.70;3.43;;;16.90;97.90;;;;;;2077759;28;20422;-81
2023/08/19 04:14:12;;;;;;;5.17;3.10;;;16.90;98.00;;;;;;2087273;28;20189;-82
2023/08/19 04:15:13;;;;;;;5.07;3.17;;;16.90;97.80;;;;;;2072070;28;20240;-82
2023/08/19 04:16:14;;;;;;;6.43;3.13;;;16.90;98.10;;;;;;2061236;28;20482;-82
2023/08/19 04:17:16;;;;;;;3.97;3.40;;;16.90;98.30;;;;;;2055247;28;20211;-82
2023/08/19 04:18:16;;;;;;;5.47;3.23;;;16.90;98.80;;;;;;2060221;28;20195;-82
2023/08/19 04:19:17;;;;;;;5.13;3.40;;;16.80;98.90;;;;;;2068263;28;20423;-82
2023/08/19 04:20:18;;;;;;;7.23;3.50;;;16.80;99.00;;;;;;2069050;28;20190;-82
2023/08/19 04:21:20;;;;;;;6.33;3.40;;;16.80;99.20;;;;;;2077801;28;20189;-82
2023/08/19 04:22:22;;;;;;;8.20;3.43;;;16.80;99.30;;;;;;2071341;28;20549;-83
2023/08/19 04:23:23;;;;;;;4.50;3.50;;;16.80;99.30;;;;;;2062419;28;20296;-82
2023/08/19 04:24:23;;;;;;;5.97;3.60;;;16.80;99.20;;;;;;2060254;28;20471;-81
2023/08/19 04:25:24;;;;;;;5.17;3.07;;;16.80;99.10;;;;;;2070270;28;20236;-82
2023/08/19 04:26:25;;;;;;;5.47;3.70;;;16.80;99.10;;;;;;2071157;28;20344;-82
2023/08/19 04:27:25;;;;;;;5.13;3.47;;;16.80;99.20;;;;;;2063756;28;20229;-81
2023/08/19 04:28:26;;;;;;;5.33;3.10;;;16.80;99.30;;;;;;2064751;28;20262;-82
2023/08/19 04:29:27;;;;;;;4.90;3.20;;;16.80;99.10;;;;;;2063059;28;20241;-83
2023/08/19 04:30:29;;;;;;;6.23;3.37;;;16.80;99.30;;;;;;2063765;28;20596;-81
2023/08/19 04:31:30;;;;;;;6.82;3.50;;;16.70;99.50;;;;;;2067840;28;20473;-83
2023/08/19 04:32:31;;;;;;;4.90;3.70;;;16.70;99.70;;;;;;2074768;28;20234;-82
2023/08/19 04:33:33;;;;;;;5.40;3.47;;;16.60;99.30;;;;;;2080004;28;20224;-81
2023/08/19 04:34:34;;;;;;;5.30;3.33;;;16.70;99.10;;;;;;2055691;28;20528;-81
2023/08/19 04:35:34;;;;;;;4.90;3.40;;;16.70;99.00;;;;;;2047516;28;20497;-81
2023/08/19 04:36:35;;;;;;;5.27;3.00;;;16.70;98.90;;;;;;2047997;28;20251;-82
2023/08/19 04:37:36;;;;;;;6.40;3.57;;;16.80;98.70;;;;;;2050895;28;20393;-81
2023/08/19 04:38:37;;;;;;;3.97;3.57;;;16.80;98.70;;;;;;2063797;28;20710;-81
2023/08/19 04:39:38;;;;;;;5.80;3.40;;;16.80;98.90;;;;;;2062830;28;20276;-82
2023/08/19 04:40:38;;;;;;;4.50;3.37;;;16.80;99.00;;;;;;2063529;28;20238;-82
2023/08/19 04:41:39;;;;;;;5.37;3.53;;;16.80;98.90;;;;;;2062830;28;20854;-82
2023/08/19 04:42:40;;;;;;;3.70;2.93;;;16.80;98.60;;;;;;2062361;28;20233;-81
2023/08/19 04:43:40;;;;;;;4.73;3.87;;;16.80;99.00;;;;;;2057037;28;20723;-82
2023/08/19 04:44:41;;;;;;;5.57;3.50;;;16.90;98.90;;;;;;2066532;28;20313;-83
2023/08/19 04:45:42;;;;;;;5.23;3.70;;;16.80;98.80;;;;;;2072199;28;20225;-82
2023/08/19 04:46:43;;;;;;;6.87;3.80;;;16.90;98.70;;;;;;2064572;28;20230;-82
2023/08/19 04:47:44;;;;;;;6.17;3.50;;;16.90;98.90;;;;;;2058457;28;20977;-82
2023/08/19 04:48:45;;;;;;;5.43;3.60;;;16.90;99.10;;;;;;2063953;28;21280;-83
2023/08/19 04:49:45;;;;;;;3.77;3.30;;;16.90;99.00;;;;;;2067448;28;20237;-83
2023/08/19 04:50:46;;;;;;;7.87;3.87;;;16.90;98.90;;;;;;2065239;28;20226;-82
2023/08/19 04:51:47;;;;;;;9.00;3.70;;;17.00;98.90;;;;;;2072369;28;20600;-82
2023/08/19 04:52:47;;;;;;;6.03;3.43;;;17.00;98.90;;;;;;2073230;28;20252;-83
2023/08/19 04:53:48;;;;;;;5.70;3.50;;;17.00;98.90;;;;;;2065738;28;20237;-82
2023/08/19 04:54:49;;;;;;;4.03;3.43;;;17.10;98.80;;;;;;2064552;28;20234;-83
2023/08/19 04:56:04;;;;;;;6.60;3.47;;;17.10;98.90;;;;;;2063119;28;20230;-83
2023/08/19 04:57:05;;;;;;;5.87;3.60;;;17.00;99.30;;;;;;2068628;28;20225;-83
2023/08/19 04:58:06;;;;;;;5.17;3.43;;;17.00;99.10;;;;;;2066257;28;20459;-81
2023/08/19 04:59:07;;;;;;;5.37;3.50;;;17.00;99.20;;;;;;2061395;28;20803;-81
2023/08/19 05:00:12;;;;;;;7.37;3.73;;;17.00;99.30;;;;;;2064317;28;20224;-83
2023/08/19 05:01:12;;;;;;;5.10;3.90;;;17.00;99.30;;;;;;2057163;28;20189;-82
2023/08/19 05:02:13;;;;;;;5.30;3.77;;;17.00;99.10;;;;;;2065177;28;20971;-82
2023/08/19 05:03:14;;;;;;;5.87;3.47;;;17.10;99.30;;;;;;2072153;28;20255;-83
2023/08/19 05:04:14;;;;;;;7.47;3.50;;;17.10;99.30;;;;;;2072730;28;20178;-82
2023/08/19 05:05:16;;;;;;;8.13;3.60;;;17.10;99.50;;;;;;2064199;28;20183;-83
2023/08/19 05:06:16;;;;;;;5.63;3.83;;;17.10;99.50;;;;;;2061868;28;20284;-82
2023/08/19 05:07:17;;;;;;;4.10;3.20;;;17.10;99.40;;;;;;2070484;28;20791;-83
2023/08/19 05:08:18;;;;;;;4.03;3.27;;;17.20;99.10;;;;;;2064560;28;20221;-82
2023/08/19 05:09:19;;;;;;;12.43;3.77;;;17.20;98.90;;;;;;2057203;28;20194;-82
2023/08/19 05:10:19;;;;;;;6.17;4.00;;;17.20;98.90;;;;;;2064409;28;20191;-82
2023/08/19 05:11:20;;;;;;;4.23;3.83;;;17.20;98.90;;;;;;2070224;28;20193;-82
2023/08/19 05:12:22;;;;;;;6.77;3.50;;;17.20;98.80;;;;;;2061957;28;20295;-83
2023/08/19 05:13:23;;;;;;;4.10;3.10;;;17.20;99.10;;;;;;2062350;28;20359;-81
2023/08/19 05:14:25;;;;;;;6.03;3.80;;;17.20;99.00;;;;;;2064910;28;21035;-82
2023/08/19 05:15:26;;;;;;;6.47;3.77;;;17.20;99.00;;;;;;2071267;28;20729;-82
2023/08/19 05:16:26;;;;;;;4.90;3.60;;;17.30;99.00;;;;;;2070442;28;20471;-83
2023/08/19 05:17:27;;;;;;;4.37;3.80;;;17.30;99.00;;;;;;2069100;28;20221;-82
2023/08/19 05:18:28;;;;;;;6.93;3.97;;;17.20;99.00;;;;;;2069703;28;20348;-83
2023/08/19 05:19:31;;;;;;;8.50;4.03;;;17.30;99.40;;;;;;2072877;28;20232;-83
2023/08/19 05:20:32;;;;;;;4.40;3.40;;;17.30;98.90;;;;;;2070266;28;20240;-83
2023/08/19 05:21:32;;;;;;;6.13;3.50;;;17.30;98.70;;;;;;2073312;28;20874;-83
2023/08/19 05:22:33;;;;;;;5.33;3.60;;;17.30;99.00;;;;;;2073440;28;20244;-83
2023/08/19 05:23:34;;;;;;;5.97;4.10;;;17.30;98.90;;;;;;2072818;28;20776;-81